sensor_id;sensor_type;location;lat;lon;timestamp;P1;durP1;ratioP1;P2;durP2;ratioP2
16440;SDS011;8330;-33.858;151.184;2023-05-15T00:02:03;6.78;;;5.63;;
16440;SDS011;8330;-33.858;151.184;2023-05-15T00:04:34;9.75;;;5.82;;
16440;SDS011;8330;-33.858;151.184;2023-05-15T00:07:06;7.90;;;5.40;;
16440;SDS011;8330;-33.858;151.184;2023-05-15T00:09:37;7.20;;;5.43;;
16440;SDS011;8330;-33.858;151.184;2023-05-15T00:12:11;6.68;;;5.40;;
16440;SDS011;8330;-33.858;151.184;2023-05-15T00:14:42;13.77;;;5.40;;
16440;SDS011;8330;-33.858;151.184;2023-05-15T00:17:13;5.60;;;4.57;;
16440;SDS011;8330;-33.858;151.184;2023-05-15T00:19:44;7.22;;;5.35;;
16440;SDS011;8330;-33.858;151.184;2023-05-15T00:22:15;7.75;;;4.68;;
16440;SDS011;8330;-33.858;151.184;2023-05-15T00:24:47;8.20;;;5.30;;
16440;SDS011;8330;-33.858;151.184;2023-05-15T00:27:20;7.82;;;5.00;;
16440;SDS011;8330;-33.858;151.184;2023-05-15T00:29:51;6.70;;;4.78;;
16440;SDS011;8330;-33.858;151.184;2023-05-15T00:32:23;7.22;;;4.88;;
16440;SDS011;8330;-33.858;151.184;2023-05-15T00:34:54;8.35;;;5.20;;
16440;SDS011;8330;-33.858;151.184;2023-05-15T00:37:25;7.97;;;5.15;;
16440;SDS011;8330;-33.858;151.184;2023-05-15T00:39:56;5.93;;;4.20;;
16440;SDS011;8330;-33.858;151.184;2023-05-15T00:42:29;7.05;;;4.03;;
16440;SDS011;8330;-33.858;151.184;2023-05-15T00:45:01;7.95;;;3.85;;
16440;SDS011;8330;-33.858;151.184;2023-05-15T00:47:33;4.80;;;3.40;;
16440;SDS011;8330;-33.858;151.184;2023-05-15T00:50:08;4.90;;;3.45;;
16440;SDS011;8330;-33.858;151.184;2023-05-15T00:52:40;6.43;;;3.42;;
16440;SDS011;8330;-33.858;151.184;2023-05-15T00:55:12;3.92;;;3.25;;
16440;SDS011;8330;-33.858;151.184;2023-05-15T00:57:45;5.03;;;3.00;;
16440;SDS011;8330;-33.858;151.184;2023-05-15T01:00:18;4.80;;;2.58;;
16440;SDS011;8330;-33.858;151.184;2023-05-15T01:02:49;4.53;;;2.90;;
16440;SDS011;8330;-33.858;151.184;2023-05-15T01:05:20;5.38;;;2.72;;
16440;SDS011;8330;-33.858;151.184;2023-05-15T01:07:51;3.85;;;2.53;;
16440;SDS011;8330;-33.858;151.184;2023-05-15T01:10:29;5.30;;;2.75;;
16440;SDS011;8330;-33.858;151.184;2023-05-15T01:13:03;4.93;;;2.47;;
16440;SDS011;8330;-33.858;151.184;2023-05-15T01:15:35;3.75;;;2.20;;
16440;SDS011;8330;-33.858;151.184;2023-05-15T01:18:06;4.43;;;2.00;;
16440;SDS011;8330;-33.858;151.184;2023-05-15T01:20:49;3.72;;;2.13;;
16440;SDS011;8330;-33.858;151.184;2023-05-15T01:23:37;3.15;;;1.60;;
16440;SDS011;8330;-33.858;151.184;2023-05-15T01:26:33;3.15;;;1.75;;
16440;SDS011;8330;-33.858;151.184;2023-05-15T01:29:19;3.00;;;1.80;;
16440;SDS011;8330;-33.858;151.184;2023-05-15T01:31:56;4.05;;;1.80;;
16440;SDS011;8330;-33.858;151.184;2023-05-15T01:34:32;3.15;;;1.70;;
16440;SDS011;8330;-33.858;151.184;2023-05-15T01:37:11;4.95;;;1.65;;
16440;SDS011;8330;-33.858;151.184;2023-05-15T01:39:46;7.07;;;1.80;;
16440;SDS011;8330;-33.858;151.184;2023-05-15T01:42:21;4.95;;;2.42;;
16440;SDS011;8330;-33.858;151.184;2023-05-15T01:45:01;3.05;;;1.95;;
16440;SDS011;8330;-33.858;151.184;2023-05-15T01:47:35;5.25;;;1.95;;
16440;SDS011;8330;-33.858;151.184;2023-05-15T01:50:10;2.75;;;1.90;;
16440;SDS011;8330;-33.858;151.184;2023-05-15T01:52:43;4.35;;;1.73;;
16440;SDS011;8330;-33.858;151.184;2023-05-15T01:55:18;5.28;;;1.67;;
16440;SDS011;8330;-33.858;151.184;2023-05-15T01:57:50;4.00;;;1.80;;
16440;SDS011;8330;-33.858;151.184;2023-05-15T02:00:25;3.08;;;1.63;;
16440;SDS011;8330;-33.858;151.184;2023-05-15T02:02:56;6.93;;;1.75;;
16440;SDS011;8330;-33.858;151.184;2023-05-15T02:05:29;4.30;;;1.67;;
16440;SDS011;8330;-33.858;151.184;2023-05-15T02:08:01;2.22;;;1.30;;
16440;SDS011;8330;-33.858;151.184;2023-05-15T02:10:32;3.35;;;1.38;;
16440;SDS011;8330;-33.858;151.184;2023-05-15T02:13:04;4.03;;;1.35;;
16440;SDS011;8330;-33.858;151.184;2023-05-15T02:15:39;2.53;;;1.40;;
16440;SDS011;8330;-33.858;151.184;2023-05-15T02:18:10;3.05;;;1.40;;
16440;SDS011;8330;-33.858;151.184;2023-05-15T02:20:41;3.45;;;1.45;;
16440;SDS011;8330;-33.858;151.184;2023-05-15T02:23:12;2.70;;;1.35;;
16440;SDS011;8330;-33.858;151.184;2023-05-15T02:25:48;4.35;;;1.20;;
16440;SDS011;8330;-33.858;151.184;2023-05-15T02:28:29;4.70;;;1.73;;
16440;SDS011;8330;-33.858;151.184;2023-05-15T02:31:11;3.63;;;1.27;;
16440;SDS011;8330;-33.858;151.184;2023-05-15T02:33:49;3.05;;;1.27;;
16440;SDS011;8330;-33.858;151.184;2023-05-15T02:36:26;2.05;;;1.23;;
16440;SDS011;8330;-33.858;151.184;2023-05-15T02:39:01;2.85;;;1.25;;
16440;SDS011;8330;-33.858;151.184;2023-05-15T02:41:33;6.45;;;1.40;;
16440;SDS011;8330;-33.858;151.184;2023-05-15T02:44:07;3.70;;;1.30;;
16440;SDS011;8330;-33.858;151.184;2023-05-15T02:46:40;3.10;;;1.20;;
16440;SDS011;8330;-33.858;151.184;2023-05-15T02:49:12;1.48;;;1.10;;
16440;SDS011;8330;-33.858;151.184;2023-05-15T02:51:44;5.22;;;1.20;;
16440;SDS011;8330;-33.858;151.184;2023-05-15T02:54:16;3.58;;;1.30;;
16440;SDS011;8330;-33.858;151.184;2023-05-15T02:56:47;2.83;;;1.45;;
16440;SDS011;8330;-33.858;151.184;2023-05-15T02:59:18;4.53;;;1.25;;
16440;SDS011;8330;-33.858;151.184;2023-05-15T03:01:51;3.05;;;1.17;;
16440;SDS011;8330;-33.858;151.184;2023-05-15T03:04:27;2.80;;;0.90;;
16440;SDS011;8330;-33.858;151.184;2023-05-15T03:06:58;2.13;;;1.00;;
16440;SDS011;8330;-33.858;151.184;2023-05-15T03:09:29;1.95;;;1.10;;
16440;SDS011;8330;-33.858;151.184;2023-05-15T03:12:01;2.38;;;1.10;;
16440;SDS011;8330;-33.858;151.184;2023-05-15T03:14:32;2.58;;;1.23;;
16440;SDS011;8330;-33.858;151.184;2023-05-15T03:17:05;2.95;;;1.02;;
16440;SDS011;8330;-33.858;151.184;2023-05-15T03:19:36;1.98;;;0.90;;
16440;SDS011;8330;-33.858;151.184;2023-05-15T03:22:07;1.58;;;1.00;;
16440;SDS011;8330;-33.858;151.184;2023-05-15T03:24:38;2.63;;;1.20;;
16440;SDS011;8330;-33.858;151.184;2023-05-15T03:27:09;3.08;;;1.20;;
16440;SDS011;8330;-33.858;151.184;2023-05-15T03:29:41;2.28;;;1.00;;
16440;SDS011;8330;-33.858;151.184;2023-05-15T03:32:16;2.10;;;0.90;;
16440;SDS011;8330;-33.858;151.184;2023-05-15T03:34:47;4.13;;;1.40;;
16440;SDS011;8330;-33.858;151.184;2023-05-15T03:37:19;1.92;;;0.75;;
16440;SDS011;8330;-33.858;151.184;2023-05-15T03:39:51;2.30;;;0.68;;
16440;SDS011;8330;-33.858;151.184;2023-05-15T03:42:24;1.95;;;0.60;;
16440;SDS011;8330;-33.858;151.184;2023-05-15T03:44:55;2.00;;;0.30;;
16440;SDS011;8330;-33.858;151.184;2023-05-15T03:47:42;3.42;;;0.47;;
16440;SDS011;8330;-33.858;151.184;2023-05-15T03:50:14;1.80;;;0.55;;
16440;SDS011;8330;-33.858;151.184;2023-05-15T03:52:45;5.22;;;0.52;;
16440;SDS011;8330;-33.858;151.184;2023-05-15T03:55:22;4.95;;;0.80;;
16440;SDS011;8330;-33.858;151.184;2023-05-15T03:57:53;2.22;;;0.50;;
16440;SDS011;8330;-33.858;151.184;2023-05-15T04:00:24;4.53;;;0.52;;
16440;SDS011;8330;-33.858;151.184;2023-05-15T04:02:58;0.77;;;0.20;;
16440;SDS011;8330;-33.858;151.184;2023-05-15T04:05:29;2.00;;;0.45;;
16440;SDS011;8330;-33.858;151.184;2023-05-15T04:08:00;1.83;;;0.40;;
16440;SDS011;8330;-33.858;151.184;2023-05-15T04:10:31;3.75;;;0.40;;
16440;SDS011;8330;-33.858;151.184;2023-05-15T04:13:05;2.08;;;0.40;;
16440;SDS011;8330;-33.858;151.184;2023-05-15T04:15:37;3.25;;;0.68;;
16440;SDS011;8330;-33.858;151.184;2023-05-15T04:18:12;2.58;;;0.50;;
16440;SDS011;8330;-33.858;151.184;2023-05-15T04:20:43;3.97;;;0.50;;
16440;SDS011;8330;-33.858;151.184;2023-05-15T04:23:14;3.17;;;0.50;;
16440;SDS011;8330;-33.858;151.184;2023-05-15T04:25:45;2.42;;;0.50;;
16440;SDS011;8330;-33.858;151.184;2023-05-15T04:28:19;2.95;;;0.50;;
16440;SDS011;8330;-33.858;151.184;2023-05-15T04:30:50;0.63;;;0.40;;
16440;SDS011;8330;-33.858;151.184;2023-05-15T04:33:23;1.38;;;0.45;;
16440;SDS011;8330;-33.858;151.184;2023-05-15T04:35:54;2.90;;;0.80;;
16440;SDS011;8330;-33.858;151.184;2023-05-15T04:38:25;2.85;;;0.77;;
16440;SDS011;8330;-33.858;151.184;2023-05-15T04:40:56;2.15;;;0.82;;
16440;SDS011;8330;-33.858;151.184;2023-05-15T04:43:28;0.77;;;0.32;;
16440;SDS011;8330;-33.858;151.184;2023-05-15T04:45:59;0.82;;;0.20;;
16440;SDS011;8330;-33.858;151.184;2023-05-15T04:48:32;1.58;;;0.50;;
16440;SDS011;8330;-33.858;151.184;2023-05-15T04:51:03;1.98;;;0.40;;
16440;SDS011;8330;-33.858;151.184;2023-05-15T04:53:35;1.27;;;0.32;;
16440;SDS011;8330;-33.858;151.184;2023-05-15T04:56:06;0.60;;;0.30;;
16440;SDS011;8330;-33.858;151.184;2023-05-15T04:58:37;0.80;;;0.30;;
16440;SDS011;8330;-33.858;151.184;2023-05-15T05:01:08;1.15;;;0.30;;
16440;SDS011;8330;-33.858;151.184;2023-05-15T05:03:43;0.98;;;0.30;;
16440;SDS011;8330;-33.858;151.184;2023-05-15T05:06:14;0.85;;;0.32;;
16440;SDS011;8330;-33.858;151.184;2023-05-15T05:08:45;1.23;;;0.30;;
16440;SDS011;8330;-33.858;151.184;2023-05-15T05:11:19;1.80;;;0.50;;
16440;SDS011;8330;-33.858;151.184;2023-05-15T05:13:51;0.80;;;0.40;;
16440;SDS011;8330;-33.858;151.184;2023-05-15T05:16:22;2.30;;;0.30;;
16440;SDS011;8330;-33.858;151.184;2023-05-15T05:18:55;1.45;;;0.50;;
16440;SDS011;8330;-33.858;151.184;2023-05-15T05:21:26;1.77;;;0.38;;
16440;SDS011;8330;-33.858;151.184;2023-05-15T05:23:57;0.80;;;0.30;;
16440;SDS011;8330;-33.858;151.184;2023-05-15T05:26:28;1.42;;;0.30;;
16440;SDS011;8330;-33.858;151.184;2023-05-15T05:28:59;0.88;;;0.30;;
16440;SDS011;8330;-33.858;151.184;2023-05-15T05:31:30;1.13;;;0.35;;
16440;SDS011;8330;-33.858;151.184;2023-05-15T05:34:03;1.90;;;0.52;;
16440;SDS011;8330;-33.858;151.184;2023-05-15T05:36:34;2.28;;;0.40;;
16440;SDS011;8330;-33.858;151.184;2023-05-15T05:39:06;0.82;;;0.40;;
16440;SDS011;8330;-33.858;151.184;2023-05-15T05:41:37;0.93;;;0.30;;
16440;SDS011;8330;-33.858;151.184;2023-05-15T05:44:08;0.73;;;0.30;;
16440;SDS011;8330;-33.858;151.184;2023-05-15T05:46:39;1.48;;;0.47;;
16440;SDS011;8330;-33.858;151.184;2023-05-15T05:49:12;2.78;;;0.60;;
16440;SDS011;8330;-33.858;151.184;2023-05-15T05:51:44;1.75;;;0.40;;
16440;SDS011;8330;-33.858;151.184;2023-05-15T05:54:15;1.00;;;0.50;;
16440;SDS011;8330;-33.858;151.184;2023-05-15T05:56:46;1.38;;;0.60;;
16440;SDS011;8330;-33.858;151.184;2023-05-15T05:59:17;1.85;;;0.50;;
16440;SDS011;8330;-33.858;151.184;2023-05-15T06:01:48;1.48;;;0.35;;
16440;SDS011;8330;-33.858;151.184;2023-05-15T06:04:22;2.88;;;0.70;;
16440;SDS011;8330;-33.858;151.184;2023-05-15T06:06:53;2.30;;;0.50;;
16440;SDS011;8330;-33.858;151.184;2023-05-15T06:09:26;1.95;;;0.57;;
16440;SDS011;8330;-33.858;151.184;2023-05-15T06:11:57;2.40;;;0.50;;
16440;SDS011;8330;-33.858;151.184;2023-05-15T06:14:30;1.88;;;0.70;;
16440;SDS011;8330;-33.858;151.184;2023-05-15T06:17:01;1.08;;;0.45;;
16440;SDS011;8330;-33.858;151.184;2023-05-15T06:19:34;2.33;;;0.60;;
16440;SDS011;8330;-33.858;151.184;2023-05-15T06:22:05;1.95;;;0.60;;
16440;SDS011;8330;-33.858;151.184;2023-05-15T06:24:37;1.63;;;0.70;;
16440;SDS011;8330;-33.858;151.184;2023-05-15T06:27:08;3.70;;;0.70;;
16440;SDS011;8330;-33.858;151.184;2023-05-15T06:29:39;1.40;;;0.50;;
16440;SDS011;8330;-33.858;151.184;2023-05-15T06:32:10;1.27;;;0.50;;
16440;SDS011;8330;-33.858;151.184;2023-05-15T06:34:43;1.15;;;0.50;;
16440;SDS011;8330;-33.858;151.184;2023-05-15T06:37:15;1.08;;;0.40;;
16440;SDS011;8330;-33.858;151.184;2023-05-15T06:39:46;1.02;;;0.47;;
16440;SDS011;8330;-33.858;151.184;2023-05-15T06:42:17;1.45;;;0.40;;
16440;SDS011;8330;-33.858;151.184;2023-05-15T06:44:49;1.83;;;0.40;;
16440;SDS011;8330;-33.858;151.184;2023-05-15T06:47:22;0.73;;;0.40;;
16440;SDS011;8330;-33.858;151.184;2023-05-15T06:49:55;1.55;;;0.50;;
16440;SDS011;8330;-33.858;151.184;2023-05-15T06:52:27;0.80;;;0.30;;
16440;SDS011;8330;-33.858;151.184;2023-05-15T06:54:58;0.65;;;0.40;;
16440;SDS011;8330;-33.858;151.184;2023-05-15T06:57:29;1.45;;;0.40;;
16440;SDS011;8330;-33.858;151.184;2023-05-15T07:00:01;3.05;;;0.40;;
16440;SDS011;8330;-33.858;151.184;2023-05-15T07:02:33;0.75;;;0.30;;
16440;SDS011;8330;-33.858;151.184;2023-05-15T07:05:07;0.88;;;0.40;;
16440;SDS011;8330;-33.858;151.184;2023-05-15T07:07:38;2.10;;;0.52;;
16440;SDS011;8330;-33.858;151.184;2023-05-15T07:10:09;1.35;;;0.70;;
16440;SDS011;8330;-33.858;151.184;2023-05-15T07:12:41;2.75;;;0.90;;
16440;SDS011;8330;-33.858;151.184;2023-05-15T07:15:12;1.63;;;0.82;;
16440;SDS011;8330;-33.858;151.184;2023-05-15T07:17:43;1.85;;;0.93;;
16440;SDS011;8330;-33.858;151.184;2023-05-15T07:20:16;3.08;;;0.98;;
16440;SDS011;8330;-33.858;151.184;2023-05-15T07:22:47;2.55;;;1.65;;
16440;SDS011;8330;-33.858;151.184;2023-05-15T07:25:19;2.50;;;1.42;;
16440;SDS011;8330;-33.858;151.184;2023-05-15T07:27:50;2.13;;;1.00;;
16440;SDS011;8330;-33.858;151.184;2023-05-15T07:30:21;1.45;;;0.80;;
16440;SDS011;8330;-33.858;151.184;2023-05-15T07:32:53;1.63;;;1.00;;
16440;SDS011;8330;-33.858;151.184;2023-05-15T07:35:26;2.00;;;1.00;;
16440;SDS011;8330;-33.858;151.184;2023-05-15T07:37:58;3.72;;;1.17;;
16440;SDS011;8330;-33.858;151.184;2023-05-15T07:40:29;2.63;;;1.00;;
16440;SDS011;8330;-33.858;151.184;2023-05-15T07:43:01;2.28;;;0.90;;
16440;SDS011;8330;-33.858;151.184;2023-05-15T07:45:32;1.42;;;0.90;;
16440;SDS011;8330;-33.858;151.184;2023-05-15T07:48:12;2.03;;;0.85;;
16440;SDS011;8330;-33.858;151.184;2023-05-15T07:50:46;1.10;;;0.70;;
16440;SDS011;8330;-33.858;151.184;2023-05-15T07:53:19;0.65;;;0.50;;
16440;SDS011;8330;-33.858;151.184;2023-05-15T07:55:50;1.15;;;0.82;;
16440;SDS011;8330;-33.858;151.184;2023-05-15T07:58:21;1.17;;;0.65;;
16440;SDS011;8330;-33.858;151.184;2023-05-15T08:00:52;1.10;;;0.70;;
16440;SDS011;8330;-33.858;151.184;2023-05-15T08:03:23;0.88;;;0.70;;
16440;SDS011;8330;-33.858;151.184;2023-05-15T08:05:56;1.35;;;0.85;;
16440;SDS011;8330;-33.858;151.184;2023-05-15T08:08:27;1.55;;;0.73;;
16440;SDS011;8330;-33.858;151.184;2023-05-15T08:10:58;0.90;;;0.77;;
16440;SDS011;8330;-33.858;151.184;2023-05-15T08:13:30;1.08;;;0.73;;
16440;SDS011;8330;-33.858;151.184;2023-05-15T08:16:02;1.50;;;0.70;;
16440;SDS011;8330;-33.858;151.184;2023-05-15T08:18:34;2.08;;;0.60;;
16440;SDS011;8330;-33.858;151.184;2023-05-15T08:21:07;0.82;;;0.70;;
16440;SDS011;8330;-33.858;151.184;2023-05-15T08:23:38;2.08;;;0.70;;
16440;SDS011;8330;-33.858;151.184;2023-05-15T08:26:09;1.00;;;0.90;;
16440;SDS011;8330;-33.858;151.184;2023-05-15T08:28:40;4.32;;;1.70;;
16440;SDS011;8330;-33.858;151.184;2023-05-15T08:31:12;3.65;;;1.30;;
16440;SDS011;8330;-33.858;151.184;2023-05-15T08:33:43;1.77;;;1.20;;
16440;SDS011;8330;-33.858;151.184;2023-05-15T08:36:17;3.13;;;1.90;;
16440;SDS011;8330;-33.858;151.184;2023-05-15T08:38:48;3.65;;;2.60;;
16440;SDS011;8330;-33.858;151.184;2023-05-15T08:41:20;4.25;;;1.50;;
16440;SDS011;8330;-33.858;151.184;2023-05-15T08:44:00;3.25;;;1.33;;
16440;SDS011;8330;-33.858;151.184;2023-05-15T08:46:33;1.55;;;1.30;;
16440;SDS011;8330;-33.858;151.184;2023-05-15T08:49:05;2.03;;;1.23;;
16440;SDS011;8330;-33.858;151.184;2023-05-15T08:51:41;1.20;;;1.00;;
16440;SDS011;8330;-33.858;151.184;2023-05-15T08:54:16;3.05;;;0.88;;
16440;SDS011;8330;-33.858;151.184;2023-05-15T08:56:47;2.00;;;1.00;;
16440;SDS011;8330;-33.858;151.184;2023-05-15T08:59:18;2.45;;;1.02;;
16440;SDS011;8330;-33.858;151.184;2023-05-15T09:01:50;1.15;;;1.02;;
16440;SDS011;8330;-33.858;151.184;2023-05-15T09:04:21;1.58;;;1.02;;
16440;SDS011;8330;-33.858;151.184;2023-05-15T09:06:55;1.65;;;1.13;;
16440;SDS011;8330;-33.858;151.184;2023-05-15T09:09:28;3.05;;;2.10;;
16440;SDS011;8330;-33.858;151.184;2023-05-15T09:12:02;6.68;;;2.60;;
16440;SDS011;8330;-33.858;151.184;2023-05-15T09:14:35;3.20;;;1.60;;
16440;SDS011;8330;-33.858;151.184;2023-05-15T09:17:06;4.00;;;2.65;;
16440;SDS011;8330;-33.858;151.184;2023-05-15T09:19:40;3.00;;;2.50;;
16440;SDS011;8330;-33.858;151.184;2023-05-15T09:22:15;4.55;;;2.55;;
16440;SDS011;8330;-33.858;151.184;2023-05-15T09:24:49;4.18;;;2.80;;
16440;SDS011;8330;-33.858;151.184;2023-05-15T09:27:23;4.72;;;3.78;;
16440;SDS011;8330;-33.858;151.184;2023-05-15T09:29:54;4.82;;;3.67;;
16440;SDS011;8330;-33.858;151.184;2023-05-15T09:32:36;2.92;;;2.28;;
16440;SDS011;8330;-33.858;151.184;2023-05-15T09:38:06;6.43;;;5.32;;
16440;SDS011;8330;-33.858;151.184;2023-05-15T09:40:38;14.30;;;12.25;;
16440;SDS011;8330;-33.858;151.184;2023-05-15T09:43:09;3.63;;;3.08;;
16440;SDS011;8330;-33.858;151.184;2023-05-15T09:45:41;4.95;;;3.47;;
16440;SDS011;8330;-33.858;151.184;2023-05-15T09:48:15;12.35;;;10.48;;
16440;SDS011;8330;-33.858;151.184;2023-05-15T09:50:46;6.25;;;5.18;;
16440;SDS011;8330;-33.858;151.184;2023-05-15T09:53:20;5.40;;;3.30;;
16440;SDS011;8330;-33.858;151.184;2023-05-15T09:55:52;4.32;;;2.65;;
16440;SDS011;8330;-33.858;151.184;2023-05-15T09:58:23;4.53;;;2.60;;
16440;SDS011;8330;-33.858;151.184;2023-05-15T10:00:54;4.82;;;2.90;;
16440;SDS011;8330;-33.858;151.184;2023-05-15T10:03:29;4.40;;;3.13;;
16440;SDS011;8330;-33.858;151.184;2023-05-15T10:06:00;5.68;;;3.08;;
16440;SDS011;8330;-33.858;151.184;2023-05-15T10:08:34;5.68;;;3.08;;
16440;SDS011;8330;-33.858;151.184;2023-05-15T10:11:08;5.20;;;2.83;;
16440;SDS011;8330;-33.858;151.184;2023-05-15T10:13:39;6.80;;;3.67;;
16440;SDS011;8330;-33.858;151.184;2023-05-15T10:16:11;10.25;;;7.45;;
16440;SDS011;8330;-33.858;151.184;2023-05-15T10:18:43;9.98;;;5.72;;
16440;SDS011;8330;-33.858;151.184;2023-05-15T10:21:18;5.00;;;3.53;;
16440;SDS011;8330;-33.858;151.184;2023-05-15T10:23:53;6.18;;;2.60;;
16440;SDS011;8330;-33.858;151.184;2023-05-15T10:26:30;5.28;;;2.30;;
16440;SDS011;8330;-33.858;151.184;2023-05-15T10:29:05;4.55;;;2.75;;
16440;SDS011;8330;-33.858;151.184;2023-05-15T10:31:38;3.80;;;2.70;;
16440;SDS011;8330;-33.858;151.184;2023-05-15T10:34:09;5.68;;;3.67;;
16440;SDS011;8330;-33.858;151.184;2023-05-15T10:36:41;6.75;;;4.68;;
16440;SDS011;8330;-33.858;151.184;2023-05-15T10:39:14;5.93;;;4.15;;
16440;SDS011;8330;-33.858;151.184;2023-05-15T10:41:47;5.93;;;3.50;;
16440;SDS011;8330;-33.858;151.184;2023-05-15T10:44:21;3.72;;;2.75;;
16440;SDS011;8330;-33.858;151.184;2023-05-15T10:46:53;3.53;;;2.13;;
16440;SDS011;8330;-33.858;151.184;2023-05-15T10:49:25;2.80;;;1.60;;
16440;SDS011;8330;-33.858;151.184;2023-05-15T10:51:56;3.13;;;1.83;;
16440;SDS011;8330;-33.858;151.184;2023-05-15T10:54:31;2.42;;;1.63;;
16440;SDS011;8330;-33.858;151.184;2023-05-15T10:57:03;4.53;;;1.65;;
16440;SDS011;8330;-33.858;151.184;2023-05-15T10:59:34;6.45;;;2.30;;
16440;SDS011;8330;-33.858;151.184;2023-05-15T11:02:19;4.20;;;2.13;;
16440;SDS011;8330;-33.858;151.184;2023-05-15T11:04:56;6.07;;;2.22;;
16440;SDS011;8330;-33.858;151.184;2023-05-15T11:07:27;5.25;;;2.20;;
16440;SDS011;8330;-33.858;151.184;2023-05-15T11:10:09;2.83;;;2.10;;
16440;SDS011;8330;-33.858;151.184;2023-05-15T11:13:07;3.78;;;2.28;;
16440;SDS011;8330;-33.858;151.184;2023-05-15T11:15:42;5.07;;;2.30;;
16440;SDS011;8330;-33.858;151.184;2023-05-15T11:18:14;2.47;;;1.70;;
16440;SDS011;8330;-33.858;151.184;2023-05-15T11:23:38;3.17;;;2.53;;
16440;SDS011;8330;-33.858;151.184;2023-05-15T11:26:11;5.63;;;2.60;;
16440;SDS011;8330;-33.858;151.184;2023-05-15T11:28:42;3.47;;;2.10;;
16440;SDS011;8330;-33.858;151.184;2023-05-15T11:31:13;4.60;;;2.00;;
16440;SDS011;8330;-33.858;151.184;2023-05-15T11:33:45;3.65;;;2.08;;
16440;SDS011;8330;-33.858;151.184;2023-05-15T11:36:22;2.45;;;1.60;;
16440;SDS011;8330;-33.858;151.184;2023-05-15T11:38:54;3.92;;;2.00;;
16440;SDS011;8330;-33.858;151.184;2023-05-15T11:41:30;4.43;;;2.30;;
16440;SDS011;8330;-33.858;151.184;2023-05-15T11:44:01;3.03;;;2.30;;
16440;SDS011;8330;-33.858;151.184;2023-05-15T11:46:32;4.72;;;2.60;;
16440;SDS011;8330;-33.858;151.184;2023-05-15T11:49:07;3.53;;;2.58;;
16440;SDS011;8330;-33.858;151.184;2023-05-15T11:51:38;5.15;;;2.10;;
16440;SDS011;8330;-33.858;151.184;2023-05-15T11:54:10;4.28;;;2.20;;
16440;SDS011;8330;-33.858;151.184;2023-05-15T11:56:44;3.28;;;2.30;;
16440;SDS011;8330;-33.858;151.184;2023-05-15T11:59:15;2.95;;;2.20;;
16440;SDS011;8330;-33.858;151.184;2023-05-15T12:01:46;4.13;;;3.03;;
16440;SDS011;8330;-33.858;151.184;2023-05-15T12:04:17;3.58;;;3.00;;
16440;SDS011;8330;-33.858;151.184;2023-05-15T12:06:48;3.78;;;2.95;;
16440;SDS011;8330;-33.858;151.184;2023-05-15T12:09:20;4.10;;;2.60;;
16440;SDS011;8330;-33.858;151.184;2023-05-15T12:11:54;2.72;;;2.35;;
16440;SDS011;8330;-33.858;151.184;2023-05-15T12:14:28;3.28;;;2.05;;
16440;SDS011;8330;-33.858;151.184;2023-05-15T12:17:00;4.28;;;2.10;;
16440;SDS011;8330;-33.858;151.184;2023-05-15T12:19:31;3.92;;;2.22;;
16440;SDS011;8330;-33.858;151.184;2023-05-15T12:22:04;2.35;;;2.00;;
16440;SDS011;8330;-33.858;151.184;2023-05-15T12:24:37;3.67;;;2.90;;
16440;SDS011;8330;-33.858;151.184;2023-05-15T12:27:10;4.65;;;2.53;;
16440;SDS011;8330;-33.858;151.184;2023-05-15T12:29:46;4.65;;;2.45;;
16440;SDS011;8330;-33.858;151.184;2023-05-15T12:32:17;2.95;;;2.33;;
16440;SDS011;8330;-33.858;151.184;2023-05-15T12:34:49;2.45;;;2.25;;
16440;SDS011;8330;-33.858;151.184;2023-05-15T12:37:20;5.00;;;2.40;;
16440;SDS011;8330;-33.858;151.184;2023-05-15T12:39:54;3.22;;;2.42;;
16440;SDS011;8330;-33.858;151.184;2023-05-15T12:42:30;3.45;;;2.00;;
16440;SDS011;8330;-33.858;151.184;2023-05-15T12:45:16;4.47;;;2.22;;
16440;SDS011;8330;-33.858;151.184;2023-05-15T12:47:48;2.67;;;1.95;;
16440;SDS011;8330;-33.858;151.184;2023-05-15T12:50:20;2.20;;;1.60;;
16440;SDS011;8330;-33.858;151.184;2023-05-15T12:52:52;3.00;;;1.92;;
16440;SDS011;8330;-33.858;151.184;2023-05-15T12:55:24;2.08;;;1.73;;
16440;SDS011;8330;-33.858;151.184;2023-05-15T12:57:59;2.67;;;1.60;;
16440;SDS011;8330;-33.858;151.184;2023-05-15T13:00:33;1.92;;;1.70;;
16440;SDS011;8330;-33.858;151.184;2023-05-15T13:03:05;3.25;;;2.00;;
16440;SDS011;8330;-33.858;151.184;2023-05-15T13:05:40;4.38;;;2.30;;
16440;SDS011;8330;-33.858;151.184;2023-05-15T13:08:14;3.40;;;2.38;;
16440;SDS011;8330;-33.858;151.184;2023-05-15T13:10:45;2.78;;;1.80;;
16440;SDS011;8330;-33.858;151.184;2023-05-15T13:13:28;3.28;;;1.88;;
16440;SDS011;8330;-33.858;151.184;2023-05-15T13:16:20;2.00;;;1.80;;
16440;SDS011;8330;-33.858;151.184;2023-05-15T13:18:54;3.60;;;2.00;;
16440;SDS011;8330;-33.858;151.184;2023-05-15T13:21:26;3.75;;;2.00;;
16440;SDS011;8330;-33.858;151.184;2023-05-15T13:23:58;3.15;;;2.30;;
16440;SDS011;8330;-33.858;151.184;2023-05-15T13:26:29;3.20;;;2.33;;
16440;SDS011;8330;-33.858;151.184;2023-05-15T13:29:02;3.28;;;2.20;;
16440;SDS011;8330;-33.858;151.184;2023-05-15T13:31:34;5.82;;;2.80;;
16440;SDS011;8330;-33.858;151.184;2023-05-15T13:34:05;4.32;;;2.40;;
16440;SDS011;8330;-33.858;151.184;2023-05-15T13:36:36;3.35;;;2.38;;
16440;SDS011;8330;-33.858;151.184;2023-05-15T13:39:09;3.47;;;2.35;;
16440;SDS011;8330;-33.858;151.184;2023-05-15T13:41:40;2.92;;;2.42;;
16440;SDS011;8330;-33.858;151.184;2023-05-15T13:44:14;4.00;;;2.50;;
16440;SDS011;8330;-33.858;151.184;2023-05-15T13:46:46;3.22;;;2.58;;
16440;SDS011;8330;-33.858;151.184;2023-05-15T13:49:17;3.55;;;2.50;;
16440;SDS011;8330;-33.858;151.184;2023-05-15T13:51:48;3.78;;;2.60;;
16440;SDS011;8330;-33.858;151.184;2023-05-15T13:54:19;4.03;;;2.70;;
16440;SDS011;8330;-33.858;151.184;2023-05-15T13:56:50;5.00;;;2.80;;
16440;SDS011;8330;-33.858;151.184;2023-05-15T13:59:23;3.38;;;2.50;;
16440;SDS011;8330;-33.858;151.184;2023-05-15T14:01:54;5.32;;;2.88;;
16440;SDS011;8330;-33.858;151.184;2023-05-15T14:04:25;4.97;;;3.10;;
16440;SDS011;8330;-33.858;151.184;2023-05-15T14:06:56;5.15;;;2.67;;
16440;SDS011;8330;-33.858;151.184;2023-05-15T14:09:27;5.28;;;2.88;;
16440;SDS011;8330;-33.858;151.184;2023-05-15T14:11:59;3.88;;;2.60;;
16440;SDS011;8330;-33.858;151.184;2023-05-15T14:14:33;3.20;;;2.90;;
16440;SDS011;8330;-33.858;151.184;2023-05-15T14:17:04;4.25;;;2.90;;
16440;SDS011;8330;-33.858;151.184;2023-05-15T14:19:35;3.72;;;2.90;;
16440;SDS011;8330;-33.858;151.184;2023-05-15T14:22:06;5.70;;;2.78;;
16440;SDS011;8330;-33.858;151.184;2023-05-15T14:24:37;3.60;;;2.90;;
16440;SDS011;8330;-33.858;151.184;2023-05-15T14:27:08;4.65;;;2.78;;
16440;SDS011;8330;-33.858;151.184;2023-05-15T14:29:41;3.58;;;2.65;;
16440;SDS011;8330;-33.858;151.184;2023-05-15T14:32:14;4.10;;;2.85;;
16440;SDS011;8330;-33.858;151.184;2023-05-15T14:34:45;4.57;;;2.85;;
16440;SDS011;8330;-33.858;151.184;2023-05-15T14:37:16;3.45;;;2.75;;
16440;SDS011;8330;-33.858;151.184;2023-05-15T14:39:47;4.35;;;2.83;;
16440;SDS011;8330;-33.858;151.184;2023-05-15T14:45:42;4.93;;;2.92;;
16440;SDS011;8330;-33.858;151.184;2023-05-15T14:48:14;3.95;;;2.97;;
16440;SDS011;8330;-33.858;151.184;2023-05-15T14:50:45;4.32;;;3.40;;
16440;SDS011;8330;-33.858;151.184;2023-05-15T14:53:16;6.80;;;3.35;;
16440;SDS011;8330;-33.858;151.184;2023-05-15T14:55:47;4.47;;;2.95;;
16440;SDS011;8330;-33.858;151.184;2023-05-15T14:58:18;6.03;;;3.83;;
16440;SDS011;8330;-33.858;151.184;2023-05-15T15:00:51;5.60;;;3.60;;
16440;SDS011;8330;-33.858;151.184;2023-05-15T15:03:22;6.93;;;3.92;;